Marvel — V7OZ3 — position and weather

sailwx.info

Track history (hours):
 
Tides and Currents Weather Stations Pressure Air Temp Water Temp Dewpoint Dewpoint Depression Visibility Wind Speed Wind Dir Waves Ship Positions

Marvel

Last reported at 2018-Nov-09 05:04 UTC. Time now 2018-Nov-19 15:28 UTC.
Position S 23°38' W 043°44'.
Warning: this ship's position is 10 days out of date.

Length 182 m; draft 7.2 m.

Type: Tanker. MMSI: 538003191.

Date/timePositionNaut miles runAvg speedWind from/ knotsBaromVisibWave heightAir tempDewpointWater temp
2018-Nov-09 05:04S 23°38' W 043°44'013.5
2018-Nov-09 05:02S 23°38' W 043°43'713.4
2018-Nov-09 04:31S 23°36' W 043°36'813.4
2018-Nov-09 03:53S 23°34' W 043°27'614.1
2018-Nov-09 03:28S 23°32' W 043°21'614.4
2018-Nov-09 03:02S 23°31' W 043°14'814.4
2018-Nov-09 02:31S 23°29' W 043°06'714.4
2018-Nov-09 02:02S 23°27' W 042°59'814.7
2018-Nov-09 01:32S 23°25' W 042°52'2015.0
2018-Nov-09 00:11S 23°19' W 042°31'  
Track history (hours):
 
Tides and Currents Weather Stations Pressure Air Temp Water Temp Dewpoint Dewpoint Depression Visibility Wind Speed Wind Dir Waves Ship Positions

Marvel

Last reported at 2018-Nov-09 05:04 UTC. Time now 2018-Nov-19 15:28 UTC.
Position S 23°38' W 043°44'.
Warning: this ship's position is 10 days out of date.

Length 182 m; draft 7.2 m.

Type: Tanker. MMSI: 538003191.

Date/timePositionNaut miles runAvg speedWind from/ knotsBaromVisibWave heightAir tempDewpointWater temp
2018-Nov-09 05:04S 23°38' W 043°44'013.5
2018-Nov-09 05:02S 23°38' W 043°43'713.4
2018-Nov-09 04:31S 23°36' W 043°36'813.4
2018-Nov-09 03:53S 23°34' W 043°27'614.1
2018-Nov-09 03:28S 23°32' W 043°21'614.4
2018-Nov-09 03:02S 23°31' W 043°14'814.4
2018-Nov-09 02:31S 23°29' W 043°06'714.4
2018-Nov-09 02:02S 23°27' W 042°59'814.7
2018-Nov-09 01:32S 23°25' W 042°52'2015.0
2018-Nov-09 00:11S 23°19' W 042°31'  

Dump ship's entire track history